createdAt,value
2018-01-05T00:00:34.160Z,978.22
2018-01-05T00:01:34.117Z,978.15
2018-01-05T00:02:34.114Z,978.10
2018-01-05T00:03:34.151Z,978.60
2018-01-05T00:04:34.288Z,978.31
2018-01-05T00:05:34.120Z,978.21
2018-01-05T00:06:34.149Z,978.30
2018-01-05T00:07:34.016Z,978.22
2018-01-05T00:08:34.611Z,978.14
2018-01-05T00:09:33.985Z,978.22
2018-01-05T00:10:34.042Z,978.25
2018-01-05T00:11:34.609Z,978.20
2018-01-05T00:12:34.086Z,978.38
2018-01-05T00:13:33.937Z,978.15
2018-01-05T00:14:33.935Z,978.47
2018-01-05T00:15:33.892Z,978.45
2018-01-05T00:16:33.928Z,978.41
2018-01-05T00:17:33.867Z,978.36
2018-01-05T00:18:33.833Z,978.40
2018-01-05T00:19:33.826Z,978.48
2018-01-05T00:20:34.127Z,978.49
2018-01-05T00:21:33.790Z,978.49
2018-01-05T00:22:33.771Z,978.52
2018-01-05T00:23:33.846Z,978.83
2018-01-05T00:24:33.784Z,978.04
2018-01-05T00:25:33.810Z,978.63
2018-01-05T00:26:33.743Z,978.57
2018-01-05T00:27:33.680Z,978.58
2018-01-05T00:28:33.690Z,978.67
2018-01-05T00:29:34.622Z,978.70
2018-01-05T00:30:33.638Z,978.46
2018-01-05T00:31:33.659Z,978.58
2018-01-05T00:32:33.616Z,978.64
2018-01-05T00:33:33.633Z,978.51
2018-01-05T00:34:33.566Z,978.63
2018-01-05T00:35:33.570Z,978.70
2018-01-05T00:36:33.623Z,978.65
2018-01-05T00:37:33.520Z,978.51
2018-01-05T00:38:33.510Z,978.47
2018-01-05T00:39:33.493Z,978.69
2018-01-05T00:40:33.466Z,978.66
2018-01-05T00:41:33.442Z,978.67
2018-01-05T00:42:33.440Z,978.77
2018-01-05T00:43:33.410Z,978.72
2018-01-05T00:44:33.421Z,978.84
2018-01-05T00:45:33.382Z,978.76
2018-01-05T00:46:33.447Z,978.67
2018-01-05T00:47:33.337Z,978.94
2018-01-05T00:48:34.127Z,978.97
2018-01-05T00:49:33.335Z,978.82
2018-01-05T00:50:33.333Z,978.89
2018-01-05T00:51:33.285Z,978.97
2018-01-05T00:52:33.307Z,978.89
2018-01-05T00:53:33.257Z,978.89
2018-01-05T00:54:33.264Z,978.99
2018-01-05T00:55:33.227Z,978.91
2018-01-05T00:56:33.206Z,979.08
2018-01-05T00:57:33.248Z,979.01
2018-01-05T00:58:33.176Z,978.96
2018-01-05T00:59:33.166Z,978.97
2018-01-05T01:00:33.143Z,979.07
2018-01-05T01:01:33.136Z,979.07
2018-01-05T01:02:33.091Z,979.07
2018-01-05T01:03:33.127Z,979.09
2018-01-05T01:04:33.110Z,979.06
2018-01-05T01:05:33.064Z,979.13
2018-01-05T01:06:33.050Z,979.04
2018-01-05T01:07:33.162Z,978.99
2018-01-05T01:08:33.073Z,979.05
2018-01-05T01:09:33.037Z,979.15
2018-01-05T01:10:32.974Z,978.94
2018-01-05T01:11:32.962Z,979.18
2018-01-05T01:12:33.108Z,979.20
2018-01-05T01:13:32.933Z,979.18
2018-01-05T01:14:32.954Z,979.29
2018-01-05T01:15:32.890Z,979.35
2018-01-05T01:16:32.866Z,979.15
2018-01-05T01:17:32.836Z,979.07
2018-01-05T01:18:32.853Z,979.17
2018-01-05T01:19:32.812Z,979.31
2018-01-05T01:20:32.803Z,979.14
2018-01-05T01:21:32.794Z,979.19
2018-01-05T01:22:32.759Z,979.27
2018-01-05T01:23:32.844Z,979.10
2018-01-05T01:24:32.746Z,979.21
2018-01-05T01:25:32.729Z,979.16
2018-01-05T01:26:32.746Z,979.26
2018-01-05T01:27:32.695Z,979.30
2018-01-05T01:28:32.654Z,979.14
2018-01-05T01:29:33.619Z,979.38
2018-01-05T01:30:32.624Z,979.29
2018-01-05T01:31:32.673Z,979.35
2018-01-05T01:32:32.631Z,979.20
2018-01-05T01:33:32.587Z,979.30
2018-01-05T01:34:32.588Z,979.28
2018-01-05T01:35:32.544Z,979.30
2018-01-05T01:36:32.543Z,979.39
2018-01-05T01:37:32.531Z,979.39
2018-01-05T01:38:32.501Z,979.36
2018-01-05T01:39:32.496Z,979.38
2018-01-05T01:40:32.478Z,979.30
2018-01-05T01:41:32.518Z,979.32
2018-01-05T01:42:32.459Z,979.41
2018-01-05T01:43:32.467Z,979.36
2018-01-05T01:44:32.410Z,979.56
2018-01-05T01:45:32.431Z,979.47
2018-01-05T01:46:32.398Z,979.52
2018-01-05T01:47:32.402Z,979.48
2018-01-05T01:48:32.375Z,979.39
2018-01-05T01:49:32.323Z,979.52
2018-01-05T01:50:32.305Z,979.36
2018-01-05T01:51:32.300Z,979.43
2018-01-05T01:52:32.279Z,979.47
2018-01-05T01:53:32.299Z,979.60
2018-01-05T01:54:32.251Z,979.51
2018-01-05T01:55:32.228Z,979.53
2018-01-05T01:56:32.217Z,979.54
2018-01-05T01:57:32.206Z,979.65
2018-01-05T01:58:33.126Z,979.40
2018-01-05T01:59:32.213Z,979.78
2018-01-05T02:00:32.169Z,979.42
2018-01-05T02:01:33.117Z,979.34
2018-01-05T02:02:32.099Z,979.49
2018-01-05T02:03:32.145Z,979.60
2018-01-05T02:04:32.107Z,979.59
2018-01-05T02:05:32.057Z,979.47
2018-01-05T02:06:32.043Z,979.45
2018-01-05T02:07:32.051Z,979.57
2018-01-05T02:08:32.001Z,979.70
2018-01-05T02:09:32.120Z,979.51
2018-01-05T02:10:31.998Z,979.57
2018-01-05T02:11:31.956Z,979.50
2018-01-05T02:12:31.932Z,979.64
2018-01-05T02:13:31.928Z,979.59
2018-01-05T02:14:31.919Z,979.52
2018-01-05T02:15:31.929Z,979.55
2018-01-05T02:16:31.880Z,979.49
2018-01-05T02:17:31.851Z,979.41
2018-01-05T02:18:31.839Z,979.50
2018-01-05T02:19:31.825Z,979.43
2018-01-05T02:20:31.842Z,979.54
2018-01-05T02:21:31.792Z,979.37
2018-01-05T02:22:31.791Z,979.43
2018-01-05T02:23:32.616Z,979.37
2018-01-05T02:24:31.740Z,979.38
2018-01-05T02:25:31.756Z,979.40
2018-01-05T02:26:31.714Z,979.32
2018-01-05T02:27:31.745Z,979.29
2018-01-05T02:28:31.674Z,979.32
2018-01-05T02:29:31.657Z,979.45
2018-01-05T02:30:31.634Z,979.36
2018-01-05T02:31:32.625Z,979.20
2018-01-05T02:32:31.612Z,979.34
2018-01-05T02:33:31.646Z,979.40
2018-01-05T02:34:31.566Z,979.40
2018-01-05T02:35:31.554Z,979.48
2018-01-05T02:36:31.536Z,979.43
2018-01-05T02:37:31.528Z,979.57
2018-01-05T02:38:31.526Z,979.42
2018-01-05T02:39:31.496Z,979.28
2018-01-05T02:40:31.488Z,979.30
2018-01-05T02:41:31.463Z,979.35
2018-01-05T02:42:31.433Z,979.30
2018-01-05T02:43:31.461Z,979.31
2018-01-05T02:44:31.406Z,979.29
2018-01-05T02:45:31.421Z,979.23
2018-01-05T02:46:31.373Z,979.25
2018-01-05T02:47:31.362Z,979.29
2018-01-05T02:48:31.358Z,979.23
2018-01-05T02:49:31.325Z,979.22
2018-01-05T02:50:31.334Z,979.11
2018-01-05T02:51:31.291Z,979.16
2018-01-05T02:52:31.355Z,979.15
2018-01-05T02:53:31.259Z,979.17
2018-01-05T02:54:31.244Z,979.20
2018-01-05T02:55:31.294Z,979.34
2018-01-05T02:56:31.213Z,979.18
2018-01-05T02:57:31.202Z,979.29
2018-01-05T02:58:31.169Z,979.17
2018-01-05T02:59:31.159Z,979.27
2018-01-05T03:00:31.150Z,979.41
2018-01-05T03:01:31.121Z,979.31
2018-01-05T03:02:31.637Z,979.20
2018-01-05T03:03:31.100Z,979.33
2018-01-05T03:04:31.079Z,979.23
2018-01-05T03:05:31.072Z,979.44
2018-01-05T03:06:31.622Z,979.25
2018-01-05T03:07:31.024Z,979.43
2018-01-05T03:08:31.017Z,979.47
2018-01-05T03:09:30.988Z,979.40
2018-01-05T03:10:30.979Z,979.37
2018-01-05T03:11:30.961Z,979.22
2018-01-05T03:12:31.013Z,979.19
2018-01-05T03:13:30.945Z,979.42
2018-01-05T03:14:30.915Z,979.33
2018-01-05T03:15:30.907Z,979.42
2018-01-05T03:16:30.876Z,979.36
2018-01-05T03:17:30.868Z,979.32
2018-01-05T03:18:30.898Z,979.39
2018-01-05T03:19:30.835Z,979.44
2018-01-05T03:20:30.807Z,979.43
2018-01-05T03:21:30.800Z,979.44
2018-01-05T03:22:30.781Z,979.47
2018-01-05T03:23:30.782Z,979.42
2018-01-05T03:24:30.746Z,979.55
2018-01-05T03:25:30.717Z,979.49
2018-01-05T03:26:30.703Z,979.46
2018-01-05T03:27:30.690Z,979.55
2018-01-05T03:28:32.129Z,979.65
2018-01-05T03:29:31.659Z,979.55
2018-01-05T03:30:30.642Z,979.40
2018-01-05T03:31:30.632Z,979.56
2018-01-05T03:32:30.606Z,979.46
2018-01-05T03:33:30.590Z,979.54
2018-01-05T03:34:31.812Z,979.50
2018-01-05T03:35:30.581Z,979.47
2018-01-05T03:36:30.556Z,979.43
2018-01-05T03:37:30.534Z,979.40
2018-01-05T03:38:30.498Z,979.40
2018-01-05T03:39:30.497Z,979.30
2018-01-05T03:40:30.486Z,979.28
2018-01-05T03:41:30.577Z,979.48
2018-01-05T03:42:31.134Z,979.34
2018-01-05T03:43:30.426Z,979.31
2018-01-05T03:44:30.421Z,979.32
2018-01-05T03:45:30.450Z,979.38
2018-01-05T03:46:30.373Z,979.25
2018-01-05T03:47:30.357Z,979.32
2018-01-05T03:48:30.362Z,979.41
2018-01-05T03:49:30.324Z,979.31
2018-01-05T03:50:30.309Z,979.28
2018-01-05T03:51:30.349Z,979.24
2018-01-05T03:52:30.288Z,979.12
2018-01-05T03:53:30.254Z,979.23
2018-01-05T03:54:30.525Z,979.29
2018-01-05T03:55:30.230Z,979.16
2018-01-05T03:56:30.234Z,979.24
2018-01-05T03:57:30.198Z,979.22
2018-01-05T03:58:30.186Z,979.13
2018-01-05T03:59:30.229Z,979.13
2018-01-05T04:00:30.153Z,979.18
2018-01-05T04:01:30.125Z,979.18
2018-01-05T04:02:30.163Z,979.35
2018-01-05T04:03:30.098Z,979.20
2018-01-05T04:04:34.790Z,979.25
2018-01-05T04:05:30.072Z,979.27
2018-01-05T04:06:30.043Z,979.27
2018-01-05T04:07:30.037Z,979.23
2018-01-05T04:08:30.063Z,979.25
2018-01-05T04:09:29.991Z,979.31
2018-01-05T04:10:30.029Z,979.22
2018-01-05T04:11:29.949Z,979.30
2018-01-05T04:12:29.933Z,979.19
2018-01-05T04:13:29.932Z,979.29
2018-01-05T04:14:29.914Z,979.23
2018-01-05T04:15:29.881Z,979.22
2018-01-05T04:16:29.912Z,979.22
2018-01-05T04:17:29.867Z,979.35
2018-01-05T04:18:29.846Z,979.26
2018-01-05T04:19:29.821Z,979.26
2018-01-05T04:20:29.804Z,979.25
2018-01-05T04:21:29.791Z,979.21
2018-01-05T04:22:29.770Z,979.30
2018-01-05T04:23:29.756Z,979.39
2018-01-05T04:24:29.738Z,979.28
2018-01-05T04:25:29.744Z,979.20
2018-01-05T04:26:29.708Z,979.26
2018-01-05T04:27:29.741Z,979.20
2018-01-05T04:28:29.677Z,979.25
2018-01-05T04:29:29.648Z,979.29
2018-01-05T04:30:29.638Z,979.26
2018-01-05T04:31:29.625Z,979.21
2018-01-05T04:32:29.606Z,979.16
2018-01-05T04:33:29.614Z,979.06
2018-01-05T04:34:29.583Z,979.10
2018-01-05T04:35:29.556Z,979.14
2018-01-05T04:36:29.544Z,979.10
2018-01-05T04:37:29.510Z,979.14
2018-01-05T04:38:29.539Z,979.11
2018-01-05T04:39:29.496Z,979.06
2018-01-05T04:40:29.465Z,979.11
2018-01-05T04:41:29.453Z,979.18
2018-01-05T04:42:29.444Z,979.13
2018-01-05T04:43:29.429Z,979.13
2018-01-05T04:44:29.440Z,979.16
2018-01-05T04:45:29.386Z,979.17
2018-01-05T04:46:29.371Z,979.15
2018-01-05T04:47:29.346Z,979.10
2018-01-05T04:48:29.341Z,979.21
2018-01-05T04:49:29.393Z,979.07
2018-01-05T04:50:29.305Z,979.18
2018-01-05T04:51:29.288Z,979.15
2018-01-05T04:52:29.278Z,979.27
2018-01-05T04:53:29.254Z,979.23
2018-01-05T04:54:29.258Z,979.23
2018-01-05T04:55:29.257Z,979.22
2018-01-05T04:56:29.239Z,979.19
2018-01-05T04:57:29.189Z,979.31
2018-01-05T04:58:29.162Z,979.21
2018-01-05T04:59:29.153Z,979.20
2018-01-05T05:00:29.132Z,979.15
2018-01-05T05:01:29.182Z,979.29
2018-01-05T05:02:29.111Z,979.26
2018-01-05T05:03:29.094Z,979.19
2018-01-05T05:04:29.071Z,979.21
2018-01-05T05:05:29.051Z,979.25
2018-01-05T05:06:29.039Z,979.20
2018-01-05T05:07:29.023Z,979.35
2018-01-05T05:08:28.997Z,979.33
2018-01-05T05:09:28.990Z,979.28
2018-01-05T05:10:28.968Z,979.32
2018-01-05T05:11:28.954Z,979.32
2018-01-05T05:12:28.976Z,979.33
2018-01-05T05:13:28.937Z,979.27
2018-01-05T05:14:28.908Z,979.27
2018-01-05T05:15:28.895Z,979.28
2018-01-05T05:16:28.869Z,979.28
2018-01-05T05:17:28.851Z,979.25
2018-01-05T05:18:28.870Z,979.31
2018-01-05T05:19:28.836Z,979.26
2018-01-05T05:20:28.815Z,979.18
2018-01-05T05:21:28.797Z,979.32
2018-01-05T05:22:28.775Z,979.29
2018-01-05T05:23:28.798Z,979.27
2018-01-05T05:24:28.753Z,979.28
2018-01-05T05:25:28.728Z,979.27
2018-01-05T05:26:28.712Z,979.38
2018-01-05T05:27:28.686Z,979.29
2018-01-05T05:28:28.703Z,979.35
2018-01-05T05:29:28.666Z,979.24
2018-01-05T05:30:28.634Z,979.38
2018-01-05T05:31:28.625Z,979.36
2018-01-05T05:32:28.605Z,979.36
2018-01-05T05:33:28.656Z,979.38
2018-01-05T05:34:28.580Z,979.38
2018-01-05T05:35:28.549Z,979.34
2018-01-05T05:36:28.539Z,979.31
2018-01-05T05:37:28.527Z,979.31
2018-01-05T05:38:28.502Z,979.31
2018-01-05T05:39:28.497Z,979.25
2018-01-05T05:40:28.477Z,979.41
2018-01-05T05:41:28.472Z,979.37
2018-01-05T05:42:28.443Z,979.33
2018-01-05T05:43:28.436Z,979.28
2018-01-05T05:44:28.474Z,979.37
2018-01-05T05:45:28.401Z,979.44
2018-01-05T05:46:28.385Z,979.36
2018-01-05T05:47:28.361Z,979.31
2018-01-05T05:48:28.353Z,979.42
2018-01-05T05:49:28.333Z,979.34
2018-01-05T05:50:28.349Z,979.39
2018-01-05T05:51:28.290Z,979.32
2018-01-05T05:52:28.282Z,979.29
2018-01-05T05:53:28.272Z,979.35
2018-01-05T05:54:28.261Z,979.37
2018-01-05T05:55:28.232Z,979.39
2018-01-05T05:56:28.219Z,979.43
2018-01-05T05:57:28.233Z,979.41
2018-01-05T05:58:28.184Z,979.45
2018-01-05T05:59:28.165Z,979.45
2018-01-05T06:00:28.179Z,979.47
2018-01-05T06:01:28.144Z,979.49
2018-01-05T06:02:28.118Z,979.50
2018-01-05T06:03:28.098Z,979.51
2018-01-05T06:04:28.084Z,979.46
2018-01-05T06:05:28.093Z,979.48
2018-01-05T06:06:28.069Z,979.44
2018-01-05T06:07:28.037Z,979.44
2018-01-05T06:08:28.020Z,979.47
2018-01-05T06:09:28.004Z,979.57
2018-01-05T06:10:27.999Z,979.52
2018-01-05T06:11:27.978Z,979.59
2018-01-05T06:12:27.945Z,979.55
2018-01-05T06:13:27.944Z,979.51
2018-01-05T06:14:27.922Z,979.50
2018-01-05T06:15:27.906Z,979.55
2018-01-05T06:16:27.954Z,979.52
2018-01-05T06:17:27.865Z,979.50
2018-01-05T06:18:27.860Z,979.59
2018-01-05T06:19:27.849Z,979.54
2018-01-05T06:20:27.817Z,979.59
2018-01-05T06:21:27.816Z,979.62
2018-01-05T06:22:27.823Z,979.57
2018-01-05T06:23:27.777Z,979.65
2018-01-05T06:24:27.757Z,979.60
2018-01-05T06:25:27.750Z,979.68
2018-01-05T06:26:27.718Z,979.66
2018-01-05T06:27:27.751Z,979.75
2018-01-05T06:28:27.699Z,979.68
2018-01-05T06:29:27.667Z,979.72
2018-01-05T06:30:27.659Z,979.69
2018-01-05T06:31:27.635Z,979.77
2018-01-05T06:32:27.664Z,979.68
2018-01-05T06:33:27.602Z,979.68
2018-01-05T06:34:27.592Z,979.67
2018-01-05T06:35:27.574Z,979.58
2018-01-05T06:36:27.560Z,979.59
2018-01-05T06:37:27.602Z,979.55
2018-01-05T06:38:27.524Z,979.54
2018-01-05T06:39:27.512Z,979.50
2018-01-05T06:40:27.492Z,979.48
2018-01-05T06:41:27.477Z,979.57
2018-01-05T06:42:27.452Z,979.55
2018-01-05T06:43:27.456Z,979.55
2018-01-05T06:44:27.421Z,979.50
2018-01-05T06:45:27.405Z,979.60
2018-01-05T06:46:27.385Z,979.55
2018-01-05T06:47:27.450Z,979.59
2018-01-05T06:48:27.352Z,979.57
2018-01-05T06:49:27.330Z,979.61
2018-01-05T06:50:27.310Z,979.53
2018-01-05T06:51:27.297Z,979.54
2018-01-05T06:52:27.294Z,979.56
2018-01-05T06:53:27.299Z,979.54
2018-01-05T06:54:27.249Z,979.49
2018-01-05T06:55:27.239Z,979.57
2018-01-05T06:56:27.216Z,979.54
2018-01-05T06:57:27.209Z,979.54
2018-01-05T06:58:27.224Z,979.55
2018-01-05T06:59:27.170Z,979.57
2018-01-05T07:00:27.162Z,979.63
2018-01-05T07:01:27.138Z,979.68
2018-01-05T07:02:27.116Z,979.69
2018-01-05T07:03:27.131Z,979.66
2018-01-05T07:04:27.149Z,979.65
2018-01-05T07:05:27.087Z,979.68
2018-01-05T07:06:27.052Z,979.67
2018-01-05T07:07:27.028Z,979.68
2018-01-05T07:08:27.012Z,979.68
2018-01-05T07:09:26.993Z,979.69
2018-01-05T07:10:26.988Z,979.65
2018-01-05T07:11:26.959Z,979.72
2018-01-05T07:12:26.948Z,979.73
2018-01-05T07:13:26.919Z,979.81
2018-01-05T07:14:27.220Z,979.90
2018-01-05T07:15:26.891Z,979.83
2018-01-05T07:16:26.875Z,979.83
2018-01-05T07:17:26.864Z,979.87
2018-01-05T07:18:26.884Z,979.86
2018-01-05T07:19:26.838Z,979.89
2018-01-05T07:20:26.819Z,979.81
2018-01-05T07:21:26.787Z,979.96
2018-01-05T07:22:26.789Z,979.93
2018-01-05T07:23:26.821Z,979.95
2018-01-05T07:24:26.741Z,979.87
2018-01-05T07:25:26.735Z,979.94
2018-01-05T07:26:26.701Z,979.86
2018-01-05T07:27:27.659Z,979.93
2018-01-05T07:28:26.697Z,979.94
2018-01-05T07:29:26.714Z,979.95
2018-01-05T07:30:26.637Z,979.89
2018-01-05T07:31:26.624Z,979.96
2018-01-05T07:32:26.615Z,979.96
2018-01-05T07:33:26.599Z,980.02
2018-01-05T07:34:26.559Z,980.07
2018-01-05T07:35:26.588Z,980.08
2018-01-05T07:36:26.547Z,980.18
2018-01-05T07:37:26.530Z,980.18
2018-01-05T07:38:26.509Z,980.31
2018-01-05T07:39:26.493Z,980.22
2018-01-05T07:40:26.536Z,980.36
2018-01-05T07:41:26.495Z,980.29
2018-01-05T07:42:26.448Z,980.25
2018-01-05T07:43:26.431Z,980.28
2018-01-05T07:44:26.400Z,980.29
2018-01-05T07:45:26.374Z,980.32
2018-01-05T07:46:26.367Z,980.33
2018-01-05T07:47:26.343Z,980.33
2018-01-05T07:48:26.355Z,980.31
2018-01-05T07:49:26.364Z,980.29
2018-01-05T07:50:26.290Z,980.38
2018-01-05T07:51:26.277Z,980.39
2018-01-05T07:52:26.257Z,980.47
2018-01-05T07:53:26.238Z,980.41
2018-01-05T07:54:26.228Z,980.39
2018-01-05T07:55:26.397Z,980.49
2018-01-05T07:56:26.204Z,980.44
2018-01-05T07:57:26.177Z,980.47
2018-01-05T07:58:26.218Z,980.48
2018-01-05T07:59:26.221Z,980.54
2018-01-05T08:00:26.128Z,980.55
2018-01-05T08:01:26.162Z,980.60
2018-01-05T08:02:26.093Z,980.57
2018-01-05T08:03:26.090Z,980.64
2018-01-05T08:04:26.072Z,980.59
2018-01-05T08:05:26.050Z,980.64
2018-01-05T08:06:26.026Z,980.57
2018-01-05T08:07:26.041Z,980.61
2018-01-05T08:08:25.994Z,980.56
2018-01-05T08:09:25.979Z,980.67
2018-01-05T08:10:25.956Z,980.73
2018-01-05T08:11:25.936Z,980.67
2018-01-05T08:12:25.953Z,980.68
2018-01-05T08:13:25.911Z,980.72
2018-01-05T08:14:25.893Z,980.78
2018-01-05T08:15:25.903Z,980.84
2018-01-05T08:16:25.870Z,980.88
2018-01-05T08:17:25.885Z,980.87
2018-01-05T08:18:25.848Z,980.92
2018-01-05T08:19:25.806Z,980.95
2018-01-05T08:20:26.673Z,980.89
2018-01-05T08:21:25.761Z,981.07
2018-01-05T08:22:25.762Z,981.06
2018-01-05T08:23:25.767Z,981.14
2018-01-05T08:24:25.783Z,981.17
2018-01-05T08:25:25.705Z,981.15
2018-01-05T08:26:25.686Z,981.10
2018-01-05T08:27:25.661Z,981.30
2018-01-05T08:28:25.651Z,981.32
2018-01-05T08:29:25.623Z,981.30
2018-01-05T08:30:25.664Z,981.21
2018-01-05T08:31:25.599Z,981.11
2018-01-05T08:32:25.579Z,981.37
2018-01-05T08:33:25.560Z,981.42
2018-01-05T08:34:25.539Z,981.46
2018-01-05T08:35:25.602Z,981.55
2018-01-05T08:36:25.556Z,981.54
2018-01-05T08:37:25.500Z,981.49
2018-01-05T08:38:25.634Z,981.51
2018-01-05T08:39:25.613Z,981.59
2018-01-05T08:40:27.300Z,981.65
2018-01-05T08:41:25.506Z,981.62
2018-01-05T08:42:25.399Z,981.40
2018-01-05T08:43:25.384Z,981.67
2018-01-05T08:44:25.389Z,981.64
2018-01-05T08:45:25.382Z,981.68
2018-01-05T08:46:25.341Z,981.70
2018-01-05T08:47:25.357Z,981.73
2018-01-05T08:48:25.382Z,981.69
2018-01-05T08:49:25.841Z,981.79
2018-01-05T08:50:25.277Z,981.73
2018-01-05T08:51:25.266Z,981.70
2018-01-05T08:52:25.366Z,981.81
2018-01-05T08:53:25.228Z,981.78
2018-01-05T08:54:25.414Z,981.79
2018-01-05T08:55:25.230Z,981.75
2018-01-05T08:56:25.224Z,981.72
2018-01-05T08:57:25.151Z,981.71
2018-01-05T08:58:25.250Z,981.92
2018-01-05T08:59:25.220Z,981.82
2018-01-05T09:00:29.190Z,981.91
2018-01-05T09:03:30.093Z,981.95
2018-01-05T09:04:31.910Z,981.97
2018-01-05T09:05:34.785Z,981.99
2018-01-05T09:06:30.027Z,982.00
2018-01-05T09:07:29.982Z,982.07
2018-01-05T09:08:30.922Z,982.01
2018-01-05T09:09:30.925Z,982.00
2018-01-05T09:10:29.855Z,982.01
2018-01-05T09:11:32.740Z,982.00
2018-01-05T09:12:32.624Z,982.05
2018-01-05T09:13:30.063Z,982.09
2018-01-05T09:14:29.809Z,982.08
2018-01-05T09:15:29.999Z,982.21
2018-01-05T09:16:29.767Z,982.21
2018-01-05T09:17:29.791Z,982.28
2018-01-05T09:18:29.722Z,982.33
2018-01-05T09:19:29.697Z,982.32
2018-01-05T09:20:29.691Z,982.34
2018-01-05T09:21:29.940Z,982.34
2018-01-05T09:22:30.936Z,982.34
2018-01-05T09:23:30.168Z,982.38
2018-01-05T09:24:29.629Z,982.31
2018-01-05T09:25:29.601Z,982.32
2018-01-05T09:26:34.133Z,982.23
2018-01-05T09:27:31.590Z,982.30
2018-01-05T09:28:29.692Z,982.29
2018-01-05T09:29:29.597Z,982.22
2018-01-05T09:30:29.533Z,982.33
2018-01-05T09:31:29.509Z,982.29
2018-01-05T09:32:29.510Z,982.43
2018-01-05T09:33:29.483Z,982.41
2018-01-05T09:34:31.155Z,982.38
2018-01-05T09:35:29.679Z,982.36
2018-01-05T09:36:29.486Z,982.54
2018-01-05T09:37:29.416Z,982.44
2018-01-05T09:38:29.437Z,982.49
2018-01-05T09:39:29.609Z,982.55
2018-01-05T09:40:30.141Z,982.48
2018-01-05T09:41:30.138Z,982.50
2018-01-05T09:42:29.313Z,982.51
2018-01-05T09:43:29.296Z,982.45
2018-01-05T09:44:29.278Z,982.48
2018-01-05T09:45:29.292Z,982.52
2018-01-05T09:46:29.245Z,982.55
2018-01-05T09:47:29.224Z,982.60
2018-01-05T09:48:29.471Z,982.68
2018-01-05T09:49:29.195Z,982.61
2018-01-05T09:50:29.205Z,982.69
2018-01-05T09:51:29.163Z,982.64
2018-01-05T09:52:29.147Z,982.68
2018-01-05T09:53:29.134Z,982.67
2018-01-05T09:54:29.146Z,982.65
2018-01-05T09:55:29.153Z,982.63
2018-01-05T09:56:29.079Z,982.69
2018-01-05T09:57:29.060Z,982.65
2018-01-05T09:58:29.040Z,982.65
2018-01-05T09:59:29.016Z,982.74
2018-01-05T10:00:29.005Z,982.70
2018-01-05T10:01:29.013Z,982.69
2018-01-05T10:02:28.990Z,982.71
2018-01-05T10:03:28.947Z,982.67
2018-01-05T10:04:28.936Z,982.63
2018-01-05T10:05:28.925Z,982.66
2018-01-05T10:06:28.968Z,982.61
2018-01-05T10:07:28.897Z,982.62
2018-01-05T10:08:28.868Z,982.58
2018-01-05T10:09:33.649Z,982.64
2018-01-05T10:10:28.866Z,982.62
2018-01-05T10:11:40.130Z,982.69
2018-01-05T10:12:30.353Z,982.62
2018-01-05T10:13:31.729Z,982.63
2018-01-05T10:14:31.630Z,982.74
2018-01-05T10:15:28.823Z,982.77
2018-01-05T10:16:28.856Z,982.74
2018-01-05T10:17:31.356Z,982.75
2018-01-05T10:18:28.780Z,982.79
2018-01-05T10:19:28.694Z,982.66
2018-01-05T10:20:30.056Z,982.77
2018-01-05T10:21:39.724Z,982.90
2018-01-05T10:22:28.920Z,982.84
2018-01-05T10:23:28.717Z,982.87
2018-01-05T10:24:29.051Z,982.84
2018-01-05T10:25:28.673Z,982.78
2018-01-05T10:26:29.314Z,982.77
2018-01-05T10:30:35.068Z,982.76
2018-01-05T10:31:25.666Z,982.72
2018-01-05T10:32:25.522Z,982.69
2018-01-05T10:33:25.385Z,982.72
2018-01-05T10:34:25.381Z,982.77
2018-01-05T10:35:25.321Z,982.82
2018-01-05T10:36:25.295Z,982.82
2018-01-05T10:37:25.295Z,982.83
2018-01-05T10:38:25.325Z,982.81
2018-01-05T10:39:25.260Z,982.85
2018-01-05T10:47:22.150Z,982.97
2018-01-05T10:48:01.195Z,982.89
2018-01-05T10:49:15.390Z,982.87
2018-01-05T10:50:02.053Z,982.87
2018-01-05T10:53:09.738Z,982.81
2018-01-05T10:54:09.761Z,982.95
2018-01-05T10:55:09.701Z,982.93
2018-01-05T10:56:09.645Z,982.98
2018-01-05T10:57:09.713Z,983.04
2018-01-05T10:58:11.504Z,983.03
2018-01-05T10:59:09.600Z,983.08
2018-01-05T11:00:09.624Z,983.13
2018-01-05T11:01:09.555Z,983.13
2018-01-05T11:02:09.540Z,983.05
2018-01-05T11:03:10.025Z,983.10
2018-01-05T11:04:09.519Z,983.17
2018-01-05T11:07:47.429Z,983.15
2018-01-05T11:08:47.383Z,983.15
2018-01-05T11:09:47.373Z,983.14
2018-01-05T11:10:48.654Z,983.14
2018-01-05T11:11:47.337Z,983.10
2018-01-05T11:12:59.528Z,983.08
2018-01-05T11:13:47.320Z,983.13
2018-01-05T11:14:47.311Z,983.16
2018-01-05T11:15:47.280Z,983.20
2018-01-05T11:16:47.420Z,983.24
2018-01-05T11:17:47.277Z,983.21
2018-01-05T11:18:47.228Z,983.24
2018-01-05T11:19:47.205Z,983.24
2018-01-05T11:20:47.201Z,983.27
2018-01-05T11:21:47.172Z,983.34
2018-01-05T11:22:47.185Z,983.36
2018-01-05T11:23:47.133Z,983.31
2018-01-05T11:24:47.119Z,983.31
2018-01-05T11:25:47.110Z,983.26
2018-01-05T11:26:47.095Z,983.26
2018-01-05T11:27:47.129Z,983.24
2018-01-05T11:28:47.049Z,983.30
2018-01-05T11:29:47.035Z,983.34
2018-01-05T11:30:47.032Z,983.33
2018-01-05T11:31:47.012Z,983.33
2018-01-05T11:32:46.995Z,983.28
2018-01-05T11:33:46.975Z,983.27
2018-01-05T11:34:46.961Z,983.28
2018-01-05T11:35:46.944Z,983.35
2018-01-05T11:36:46.933Z,983.34
2018-01-05T11:37:46.915Z,983.31
2018-01-05T11:38:46.976Z,983.26
2018-01-05T11:39:47.091Z,983.27
2018-01-05T11:40:46.859Z,983.29
2018-01-05T11:41:46.856Z,983.34
2018-01-05T11:42:46.842Z,983.39
2018-01-05T11:43:46.826Z,983.38
2018-01-05T11:44:47.761Z,983.44
2018-01-05T11:45:47.755Z,983.45
2018-01-05T11:49:39.046Z,983.44
2018-01-05T11:49:52.188Z,983.46
2018-01-05T11:50:52.077Z,983.53
2018-01-05T11:51:53.631Z,983.51
2018-01-05T11:52:53.147Z,983.50
2018-01-05T11:53:52.027Z,983.52
2018-01-05T11:54:52.001Z,983.45
2018-01-05T11:55:52.009Z,983.53
2018-01-05T11:56:52.138Z,983.55
2018-01-05T11:57:56.791Z,983.59
2018-01-05T11:58:55.915Z,983.58
2018-01-05T11:59:51.937Z,983.51
2018-01-05T12:00:51.992Z,983.54
2018-01-05T12:01:52.490Z,983.47
2018-01-05T12:02:51.908Z,983.47
2018-01-05T12:03:51.856Z,983.42
2018-01-05T12:04:54.673Z,983.47
2018-01-05T12:05:51.816Z,983.43
2018-01-05T12:06:51.818Z,983.43
2018-01-05T12:07:51.824Z,983.42
2018-01-05T12:08:51.782Z,983.43
2018-01-05T12:10:01.618Z,983.38
2018-01-05T12:10:51.765Z,983.43
2018-01-05T12:11:51.756Z,983.47
2018-01-05T12:12:51.710Z,983.47
2018-01-05T12:13:51.696Z,983.48
2018-01-05T12:14:51.693Z,983.53
2018-01-05T12:15:51.660Z,983.44
2018-01-05T12:16:52.792Z,983.36
2018-01-05T12:17:54.903Z,983.35
2018-01-05T12:18:51.682Z,983.37
2018-01-05T12:19:51.606Z,983.41
2018-01-05T12:20:51.596Z,983.44
2018-01-05T12:21:51.575Z,983.43
2018-01-05T12:22:51.552Z,983.44
2018-01-05T12:23:51.570Z,983.43
2018-01-05T12:24:51.715Z,983.38
2018-01-05T12:25:51.548Z,983.40
2018-01-05T12:26:51.504Z,983.44
2018-01-05T12:27:51.469Z,983.37
2018-01-05T12:28:51.501Z,983.43
2018-01-05T12:29:51.448Z,983.37
2018-01-05T12:30:51.422Z,983.29
2018-01-05T12:31:51.405Z,983.30
2018-01-05T12:32:51.376Z,983.30
2018-01-05T12:33:51.384Z,983.44
2018-01-05T12:34:51.413Z,983.49
2018-01-05T12:35:51.423Z,983.46
2018-01-05T12:36:51.347Z,983.49
2018-01-05T12:37:51.300Z,983.43
2018-01-05T12:38:51.282Z,983.36
2018-01-05T12:39:51.270Z,983.29
2018-01-05T12:40:51.903Z,983.27
2018-01-05T12:41:51.253Z,983.27
2018-01-05T12:42:51.218Z,983.27
2018-01-05T12:43:51.224Z,983.31
2018-01-05T12:44:51.393Z,983.31
2018-01-05T12:45:52.341Z,983.36
2018-01-05T12:46:52.328Z,983.37